createdAt,value
2019-04-03T00:00:05.317Z,9.4
2019-04-03T00:01:05.014Z,9.4
2019-04-03T00:02:04.957Z,9.3
2019-04-03T00:03:05.056Z,9.2
2019-04-03T00:04:05.051Z,9.2
2019-04-03T00:05:05.297Z,9.2
2019-04-03T00:06:06.180Z,9.1
2019-04-03T00:07:06.075Z,9.1
2019-04-03T00:08:02.814Z,9.1
2019-04-03T00:09:02.729Z,9.1
2019-04-03T00:10:03.170Z,9.1
2019-04-03T00:11:03.439Z,9.1
2019-04-03T00:12:02.590Z,9.2
2019-04-03T00:13:03.622Z,9.1
2019-04-03T00:14:03.475Z,9.1
2019-04-03T00:15:03.394Z,8.6
2019-04-03T00:16:02.428Z,8.3
2019-04-03T00:17:03.398Z,8.1
2019-04-03T00:18:03.342Z,8.1
2019-04-03T00:19:03.204Z,8.2
2019-04-03T00:20:03.200Z,8.2
2019-04-03T00:21:02.997Z,8.3
2019-04-03T00:22:03.091Z,8.4
2019-04-03T00:23:03.115Z,8.3
2019-04-03T00:24:02.861Z,8.3
2019-04-03T00:25:02.654Z,8.3
2019-04-03T00:26:02.940Z,8.3
2019-04-03T00:27:02.828Z,8.3
2019-04-03T00:28:03.460Z,8.4
2019-04-03T00:29:03.015Z,8.4
2019-04-03T00:30:02.738Z,8.4
2019-04-03T00:31:03.473Z,8.3
2019-04-03T00:32:02.724Z,8.4
2019-04-03T00:33:03.480Z,8.3
2019-04-03T00:34:02.791Z,8.3
2019-04-03T00:35:03.779Z,8.3
2019-04-03T00:36:03.740Z,8.3
2019-04-03T00:37:03.374Z,8.3
2019-04-03T00:38:03.560Z,8.3
2019-04-03T00:39:02.782Z,8.3
2019-04-03T00:40:02.811Z,8.3
2019-04-03T00:41:03.264Z,8.3
2019-04-03T00:42:03.047Z,8.3
2019-04-03T00:43:03.694Z,8.3
2019-04-03T00:44:03.168Z,8.3
2019-04-03T00:45:02.950Z,8.3
2019-04-03T00:46:02.960Z,8.3
2019-04-03T00:47:03.423Z,8.2
2019-04-03T00:48:02.771Z,8.2
2019-04-03T00:49:03.169Z,8.2
2019-04-03T00:50:03.029Z,8.1
2019-04-03T00:51:03.266Z,8.1
2019-04-03T00:52:02.889Z,8.1
2019-04-03T00:53:03.005Z,8.1
2019-04-03T00:54:02.905Z,8.1
2019-04-03T00:55:03.092Z,8.1
2019-04-03T00:56:03.037Z,8.1
2019-04-03T00:57:03.541Z,8.1
2019-04-03T00:58:02.590Z,7.9
2019-04-03T00:59:03.374Z,7.8
2019-04-03T01:00:03.729Z,7.7
2019-04-03T01:01:03.459Z,7.5
2019-04-03T01:02:03.554Z,7.5
2019-04-03T01:03:03.688Z,7.4
2019-04-03T01:04:03.060Z,7.5
2019-04-03T01:05:04.173Z,7.6
2019-04-03T01:06:03.328Z,7.6
2019-04-03T01:07:03.566Z,7.5
2019-04-03T01:08:02.972Z,7.6
2019-04-03T01:09:03.092Z,7.6
2019-04-03T01:10:03.244Z,7.6
2019-04-03T01:11:03.160Z,7.6
2019-04-03T01:12:03.088Z,7.6
2019-04-03T01:13:02.857Z,7.4
2019-04-03T01:14:02.559Z,7.4
2019-04-03T01:15:03.353Z,7.4
2019-04-03T01:16:03.113Z,7.3
2019-04-03T01:17:04.792Z,7.3
2019-04-03T01:18:05.320Z,7.3
2019-04-03T01:19:06.415Z,7.2
2019-04-03T01:20:03.091Z,7.1
2019-04-03T01:21:06.511Z,7
2019-04-03T01:22:03.253Z,7.1
2019-04-03T01:23:02.990Z,7
2019-04-03T01:24:02.969Z,6.9
2019-04-03T01:25:03.119Z,6.8
2019-04-03T01:26:02.886Z,6.9
2019-04-03T01:27:02.869Z,6.9
2019-04-03T01:28:03.127Z,6.9
2019-04-03T01:29:02.863Z,6.8
2019-04-03T01:30:02.946Z,6.8
2019-04-03T01:31:02.596Z,6.8
2019-04-03T01:32:03.772Z,6.8
2019-04-03T01:33:02.923Z,6.8
2019-04-03T01:34:02.637Z,6.8
2019-04-03T01:35:03.753Z,6.7
2019-04-03T01:36:02.800Z,6.8
2019-04-03T01:37:03.688Z,6.8
2019-04-03T01:38:03.373Z,6.9
2019-04-03T01:39:03.494Z,6.8
2019-04-03T01:40:03.214Z,6.8
2019-04-03T01:41:03.080Z,6.8
2019-04-03T01:42:03.229Z,6.8
2019-04-03T01:43:02.735Z,6.7
2019-04-03T01:44:02.888Z,6.6
2019-04-03T01:45:02.901Z,6.6
2019-04-03T01:46:02.763Z,6.6
2019-04-03T01:47:02.628Z,6.6
2019-04-03T01:48:03.818Z,6.6
2019-04-03T01:49:02.668Z,6.7
2019-04-03T01:50:02.874Z,6.7
2019-04-03T01:51:03.429Z,6.8
2019-04-03T01:52:03.707Z,6.7
2019-04-03T01:53:03.419Z,6.8
2019-04-03T01:54:03.756Z,6.9
2019-04-03T01:55:04.489Z,6.9
2019-04-03T01:56:05.368Z,6.9
2019-04-03T01:57:03.139Z,7
2019-04-03T01:58:07.166Z,7
2019-04-03T01:59:07.454Z,7
2019-04-03T02:00:03.474Z,7
2019-04-03T02:01:03.492Z,6.6
2019-04-03T02:02:03.204Z,6.4
2019-04-03T02:03:03.392Z,6.3
2019-04-03T02:04:03.044Z,6.3
2019-04-03T02:05:03.211Z,6.3
2019-04-03T02:06:02.916Z,6.1
2019-04-03T02:07:03.275Z,6.2
2019-04-03T02:08:02.907Z,6.1
2019-04-03T02:09:03.072Z,6.1
2019-04-03T02:10:02.810Z,6.1
2019-04-03T02:11:03.013Z,6.1
2019-04-03T02:12:02.812Z,6.2
2019-04-03T02:13:02.814Z,6.2
2019-04-03T02:14:03.668Z,6.2
2019-04-03T02:15:03.607Z,6.3
2019-04-03T02:16:03.835Z,6.3
2019-04-03T02:17:03.787Z,6.3
2019-04-03T02:18:03.364Z,6.3
2019-04-03T02:19:03.499Z,6.3
2019-04-03T02:20:03.807Z,6.3
2019-04-03T02:21:03.720Z,6.2
2019-04-03T02:22:03.478Z,6.1
2019-04-03T02:23:03.047Z,6.1
2019-04-03T02:24:03.284Z,6.3
2019-04-03T02:25:03.073Z,6.3
2019-04-03T02:26:03.215Z,6.3
2019-04-03T02:27:03.635Z,6.4
2019-04-03T02:28:04.678Z,6.4
2019-04-03T02:29:08.469Z,6.4
2019-04-03T02:30:03.275Z,6.4
2019-04-03T02:31:02.967Z,6.4
2019-04-03T02:32:03.003Z,6.4
2019-04-03T02:33:03.585Z,6.4
2019-04-03T02:34:03.476Z,6.4
2019-04-03T02:35:08.542Z,6.5
2019-04-03T02:36:02.725Z,6.5
2019-04-03T02:37:02.732Z,6.5
2019-04-03T02:38:02.843Z,6.6
2019-04-03T02:39:03.414Z,6.5
2019-04-03T02:40:03.382Z,6.5
2019-04-03T02:41:05.548Z,6.4
2019-04-03T02:42:09.913Z,6.4
2019-04-03T02:43:03.554Z,6.4
2019-04-03T02:44:03.483Z,6.6
2019-04-03T02:45:03.455Z,6.6
2019-04-03T02:46:03.589Z,6.7
2019-04-03T02:47:03.309Z,6.8
2019-04-03T02:48:06.786Z,6.8
2019-04-03T02:49:02.879Z,6.9
2019-04-03T02:50:03.217Z,6.8
2019-04-03T02:51:03.318Z,6.9
2019-04-03T02:52:03.536Z,6.9
2019-04-03T02:53:03.005Z,6.8
2019-04-03T02:54:03.444Z,6.8
2019-04-03T02:55:08.888Z,6.8
2019-04-03T02:56:03.513Z,6.8
2019-04-03T02:57:03.895Z,6.7
2019-04-03T02:58:02.912Z,6.6
2019-04-03T02:59:03.652Z,6.6
2019-04-03T03:00:02.888Z,6.8
2019-04-03T03:01:07.969Z,6.8
2019-04-03T03:02:02.943Z,6.8
2019-04-03T03:03:03.015Z,6.8
2019-04-03T03:04:03.610Z,6.8
2019-04-03T03:05:03.500Z,6.8
2019-04-03T03:06:03.362Z,6.8
2019-04-03T03:07:05.662Z,6.8
2019-04-03T03:08:03.620Z,6.9
2019-04-03T03:09:03.480Z,6.8
2019-04-03T03:10:04.001Z,6.7
2019-04-03T03:11:03.473Z,6.7
2019-04-03T03:12:03.589Z,6.6
2019-04-03T03:13:03.225Z,6.6
2019-04-03T03:14:08.230Z,6.6
2019-04-03T03:15:03.272Z,6.6
2019-04-03T03:16:03.424Z,6.6
2019-04-03T03:17:03.530Z,6.3
2019-04-03T03:18:02.804Z,6.1
2019-04-03T03:19:03.159Z,5.9
2019-04-03T03:20:07.798Z,5.9
2019-04-03T03:21:02.982Z,5.8
2019-04-03T03:22:02.724Z,5.9
2019-04-03T03:23:02.953Z,5.9
2019-04-03T03:24:03.572Z,5.9
2019-04-03T03:25:02.767Z,5.9
2019-04-03T03:26:06.313Z,5.8
2019-04-03T03:27:03.513Z,5.8
2019-04-03T03:28:03.583Z,5.9
2019-04-03T03:29:25.022Z,5.9
2019-04-03T03:30:44.798Z,5.9
2019-04-03T03:31:08.127Z,5.9
2019-04-03T03:32:23.712Z,5.9
2019-04-03T03:33:36.153Z,5.9
2019-04-03T03:34:06.713Z,6.1
2019-04-03T03:35:23.764Z,5.9
2019-04-03T03:36:04.877Z,5.9
2019-04-03T03:37:04.518Z,5.9
2019-04-03T03:38:08.128Z,6.1
2019-04-03T03:39:03.187Z,6.1
2019-04-03T03:40:03.441Z,6.3
2019-04-03T03:41:03.564Z,6.3
2019-04-03T03:42:03.044Z,6.3
2019-04-03T03:43:06.919Z,6.3
2019-04-03T03:44:02.418Z,6.3
2019-04-03T03:45:03.577Z,6.3
2019-04-03T03:46:03.385Z,6.3
2019-04-03T03:47:03.165Z,6.3
2019-04-03T03:48:05.854Z,6.4
2019-04-03T03:49:03.039Z,6.4
2019-04-03T03:50:03.389Z,6.4
2019-04-03T03:51:02.603Z,6.4
2019-04-03T03:52:06.327Z,6.4
2019-04-03T03:53:03.022Z,6.4
2019-04-03T03:54:03.087Z,6.4
2019-04-03T03:55:02.776Z,6.4
2019-04-03T03:56:03.167Z,6.4
2019-04-03T03:57:07.503Z,6.4
2019-04-03T03:58:03.488Z,6.5
2019-04-03T03:59:03.502Z,6.5
2019-04-03T04:00:03.425Z,6.4
2019-04-03T04:01:03.527Z,6.3
2019-04-03T04:02:06.634Z,6.3
2019-04-03T04:03:03.477Z,6.3
2019-04-03T04:04:03.360Z,6.4
2019-04-03T04:05:03.460Z,6.4
2019-04-03T04:06:03.176Z,6.4
2019-04-03T04:07:05.246Z,6.4
2019-04-03T04:08:03.276Z,6.3
2019-04-03T04:09:03.619Z,6.3
2019-04-03T04:10:03.293Z,6.4
2019-04-03T04:11:03.481Z,6.4
2019-04-03T04:12:07.641Z,6.4
2019-04-03T04:13:03.491Z,6.4
2019-04-03T04:14:03.104Z,6.4
2019-04-03T04:15:03.238Z,6.4
2019-04-03T04:16:05.558Z,6.4
2019-04-03T04:17:12.501Z,6.4
2019-04-03T04:18:02.975Z,6.4
2019-04-03T04:19:02.725Z,6.4
2019-04-03T04:20:06.393Z,6.4
2019-04-03T04:21:04.002Z,6.4
2019-04-03T04:22:03.640Z,6.5
2019-04-03T04:23:03.102Z,6.5
2019-04-03T04:24:03.393Z,6.6
2019-04-03T04:25:03.618Z,6.6
2019-04-03T04:26:02.651Z,6.6
2019-04-03T04:27:03.728Z,6.6
2019-04-03T04:28:02.524Z,6.6
2019-04-03T04:29:02.970Z,6.7
2019-04-03T04:30:03.668Z,6.7
2019-04-03T04:31:03.486Z,6.8
2019-04-03T04:32:03.346Z,6.8
2019-04-03T04:33:03.281Z,6.8
2019-04-03T04:34:02.929Z,6.8
2019-04-03T04:35:02.834Z,6.8
2019-04-03T04:36:03.325Z,6.8
2019-04-03T04:37:03.520Z,6.9
2019-04-03T04:38:03.025Z,6.8
2019-04-03T04:39:03.170Z,6.8
2019-04-03T04:40:03.456Z,6.8
2019-04-03T04:41:03.384Z,6.8
2019-04-03T04:42:04.827Z,6.8
2019-04-03T04:43:07.701Z,6.9
2019-04-03T04:44:03.224Z,6.9
2019-04-03T04:45:03.251Z,6.9
2019-04-03T04:46:02.771Z,6.9
2019-04-03T04:47:02.882Z,7
2019-04-03T04:48:03.029Z,7
2019-04-03T04:49:03.022Z,7
2019-04-03T04:50:03.142Z,6.9
2019-04-03T04:51:02.808Z,6.9
2019-04-03T04:52:02.850Z,6.9
2019-04-03T04:53:02.675Z,6.8
2019-04-03T04:54:02.678Z,6.8
2019-04-03T04:55:03.813Z,6.7
2019-04-03T04:56:07.351Z,6.6
2019-04-03T04:57:03.648Z,6.6
2019-04-03T04:58:05.419Z,6.6
2019-04-03T04:59:03.747Z,6.6
2019-04-03T05:00:03.499Z,6.6
2019-04-03T05:01:02.847Z,6.8
2019-04-03T05:02:03.272Z,6.8
2019-04-03T05:03:03.504Z,6.8
2019-04-03T05:04:03.787Z,6.9
2019-04-03T05:05:03.661Z,6.9
2019-04-03T05:06:03.593Z,6.9
2019-04-03T05:07:02.940Z,6.9
2019-04-03T05:08:03.584Z,6.9
2019-04-03T05:09:04.520Z,6.9
2019-04-03T05:10:06.654Z,6.9
2019-04-03T05:11:02.910Z,7
2019-04-03T05:12:03.178Z,6.9
2019-04-03T05:13:02.814Z,6.9
2019-04-03T05:14:02.778Z,7
2019-04-03T05:15:03.334Z,6.9
2019-04-03T05:16:03.371Z,6.9
2019-04-03T05:17:02.933Z,6.9
2019-04-03T05:18:03.415Z,6.9
2019-04-03T05:19:18.285Z,6.9
2019-04-03T05:20:02.694Z,6.9
2019-04-03T05:21:02.953Z,7
2019-04-03T05:22:02.781Z,6.9
2019-04-03T05:23:02.897Z,6.9
2019-04-03T05:24:13.913Z,6.9
2019-04-03T05:25:02.978Z,6.9
2019-04-03T05:26:02.586Z,6.9
2019-04-03T05:27:03.823Z,6.9
2019-04-03T05:28:04.930Z,7
2019-04-03T05:29:05.106Z,7
2019-04-03T05:30:06.716Z,7
2019-04-03T05:31:03.396Z,7.1
2019-04-03T05:32:03.551Z,7.1
2019-04-03T05:33:03.198Z,7.1
2019-04-03T05:34:02.918Z,7.1
2019-04-03T05:35:03.270Z,7.1
2019-04-03T05:36:03.719Z,7.2
2019-04-03T05:37:03.079Z,7.2
2019-04-03T05:38:03.387Z,7.2
2019-04-03T05:39:03.632Z,7.3
2019-04-03T05:40:03.604Z,7.2
2019-04-03T05:41:02.984Z,7.3
2019-04-03T05:42:03.167Z,7.3
2019-04-03T05:43:03.123Z,7.3
2019-04-03T05:44:03.416Z,7.3
2019-04-03T05:45:04.994Z,7.2
2019-04-03T05:46:06.401Z,7.2
2019-04-03T05:47:02.994Z,7.2
2019-04-03T05:48:02.903Z,7.3
2019-04-03T05:49:02.869Z,7.2
2019-04-03T05:50:03.635Z,7.3
2019-04-03T05:51:02.779Z,7.3
2019-04-03T05:52:04.792Z,7.3
2019-04-03T05:53:06.627Z,7.4
2019-04-03T05:54:02.756Z,7.4
2019-04-03T05:55:03.747Z,7.4
2019-04-03T05:56:03.344Z,7.4
2019-04-03T05:57:03.171Z,7.4
2019-04-03T05:58:03.242Z,7.3
2019-04-03T05:59:03.265Z,7.4
2019-04-03T06:00:07.628Z,7.4
2019-04-03T06:01:10.364Z,7.5
2019-04-03T06:02:20.137Z,7.6
2019-04-03T06:03:03.620Z,7.6
2019-04-03T06:04:03.269Z,7.6
2019-04-03T06:05:07.536Z,7.7
2019-04-03T06:06:03.203Z,7.6
2019-04-03T06:07:03.133Z,7.6
2019-04-03T06:08:02.762Z,7.6
2019-04-03T06:09:02.911Z,7.7
2019-04-03T06:10:03.115Z,7.7
2019-04-03T06:11:09.244Z,7.8
2019-04-03T06:12:02.858Z,7.8
2019-04-03T06:13:06.389Z,7.8
2019-04-03T06:14:02.980Z,7.8
2019-04-03T06:15:02.740Z,7.8
2019-04-03T06:16:03.809Z,7.8
2019-04-03T06:17:03.008Z,7.8
2019-04-03T06:18:02.690Z,7.8
2019-04-03T06:19:07.385Z,7.9
2019-04-03T06:20:03.563Z,7.9
2019-04-03T06:21:03.475Z,8
2019-04-03T06:22:03.708Z,8.1
2019-04-03T06:23:03.302Z,8.1
2019-04-03T06:24:02.782Z,8.1
2019-04-03T06:25:03.545Z,8.2
2019-04-03T06:26:03.566Z,8.3
2019-04-03T06:27:03.469Z,8.3
2019-04-03T06:28:03.413Z,8.4
2019-04-03T06:29:03.703Z,8.4
2019-04-03T06:30:03.206Z,8.4
2019-04-03T06:31:03.828Z,8.4
2019-04-03T06:32:06.518Z,8.4
2019-04-03T06:33:03.197Z,8.4
2019-04-03T06:34:03.522Z,8.4
2019-04-03T06:35:03.240Z,8.5
2019-04-03T06:36:03.071Z,8.6
2019-04-03T06:37:03.200Z,8.6
2019-04-03T06:38:03.504Z,8.7
2019-04-03T06:39:03.404Z,8.8
2019-04-03T06:40:04.347Z,8.9
2019-04-03T06:41:03.120Z,8.9
2019-04-03T06:42:03.032Z,9.1
2019-04-03T06:43:03.138Z,9.1
2019-04-03T06:44:03.097Z,9.2
2019-04-03T06:45:02.888Z,9.3
2019-04-03T06:46:02.920Z,9.3
2019-04-03T06:47:03.029Z,9.4
2019-04-03T06:48:05.686Z,9.4
2019-04-03T06:49:02.657Z,9.4
2019-04-03T06:50:03.462Z,9.5
2019-04-03T06:51:03.700Z,9.5
2019-04-03T06:52:03.412Z,9.5
2019-04-03T06:53:03.454Z,9.6
2019-04-03T06:54:03.666Z,9.7
2019-04-03T06:55:04.292Z,9.7
2019-04-03T06:56:02.920Z,9.7
2019-04-03T06:57:03.470Z,9.8
2019-04-03T06:58:03.233Z,9.8
2019-04-03T06:59:03.235Z,9.8
2019-04-03T07:00:03.479Z,9.9
2019-04-03T07:01:03.356Z,9.9
2019-04-03T07:02:03.629Z,9.9
2019-04-03T07:03:04.620Z,9.9
2019-04-03T07:04:07.240Z,10.1
2019-04-03T07:05:03.490Z,10
2019-04-03T07:06:03.275Z,10
2019-04-03T07:07:03.531Z,10
2019-04-03T07:08:06.412Z,10.1
2019-04-03T07:09:05.560Z,10.1
2019-04-03T07:10:07.008Z,10.2
2019-04-03T07:11:02.969Z,10.3
2019-04-03T07:12:03.132Z,10.3
2019-04-03T07:13:03.257Z,10.4
2019-04-03T07:14:03.759Z,10.4
2019-04-03T07:15:03.170Z,10.4
2019-04-03T07:16:03.903Z,10.4
2019-04-03T07:17:06.460Z,10.5
2019-04-03T07:18:06.847Z,10.6
2019-04-03T07:19:03.686Z,10.7
2019-04-03T07:20:19.895Z,10.8
2019-04-03T07:21:03.389Z,10.7
2019-04-03T07:22:03.314Z,10.8
2019-04-03T07:23:03.160Z,10.8
2019-04-03T07:24:03.357Z,10.9
2019-04-03T07:25:04.093Z,10.9
2019-04-03T07:26:05.712Z,10.9
2019-04-03T07:27:03.024Z,10.9
2019-04-03T07:28:03.368Z,10.9
2019-04-03T07:29:03.501Z,10.9
2019-04-03T07:30:03.543Z,10.9
2019-04-03T07:31:03.198Z,10.9
2019-04-03T07:32:03.055Z,10.9
2019-04-03T07:33:06.437Z,11.2
2019-04-03T07:34:04.069Z,11.3
2019-04-03T07:35:10.374Z,11.5
2019-04-03T07:36:03.782Z,11.8
2019-04-03T07:37:03.182Z,12
2019-04-03T07:38:03.813Z,12.1
2019-04-03T07:39:02.708Z,12.1
2019-04-03T07:40:03.774Z,11.9
2019-04-03T07:41:03.042Z,12
2019-04-03T07:42:03.813Z,12.1
2019-04-03T07:43:03.591Z,12.1
2019-04-03T07:44:03.794Z,11.9
2019-04-03T07:45:03.573Z,12.1
2019-04-03T07:46:04.119Z,12.1
2019-04-03T07:47:04.826Z,12
2019-04-03T07:48:07.148Z,11.9
2019-04-03T07:49:02.866Z,11.9
2019-04-03T07:50:03.563Z,11.8
2019-04-03T07:51:03.611Z,11.8
2019-04-03T07:52:03.245Z,11.7
2019-04-03T07:53:03.406Z,11.8
2019-04-03T07:54:05.026Z,11.7
2019-04-03T07:55:03.381Z,11.6
2019-04-03T07:56:03.006Z,11.6
2019-04-03T07:57:02.888Z,11.5
2019-04-03T07:58:03.977Z,11.6
2019-04-03T07:59:04.372Z,11.6
2019-04-03T08:00:07.314Z,11.7
2019-04-03T08:01:02.830Z,11.8
2019-04-03T08:02:03.240Z,11.8
2019-04-03T08:03:03.023Z,12
2019-04-03T08:04:02.808Z,12
2019-04-03T08:05:03.729Z,11.8
2019-04-03T08:06:04.635Z,11.6
2019-04-03T08:07:03.716Z,11.6
2019-04-03T08:08:02.937Z,11.8
2019-04-03T08:09:10.469Z,12.1
2019-04-03T08:10:03.577Z,12.3
2019-04-03T08:11:03.250Z,12.3
2019-04-03T08:12:04.694Z,12.2
2019-04-03T08:13:03.450Z,12.1
2019-04-03T08:14:03.446Z,12.2
2019-04-03T08:15:03.681Z,12.3
2019-04-03T08:16:03.942Z,12.4
2019-04-03T08:17:03.496Z,12.8
2019-04-03T08:18:03.980Z,12.9
2019-04-03T08:19:03.232Z,12.9
2019-04-03T08:20:03.196Z,13
2019-04-03T08:21:03.321Z,13.1
2019-04-03T08:22:03.080Z,13.4
2019-04-03T08:23:06.856Z,13.6
2019-04-03T08:24:03.169Z,13.3
2019-04-03T08:25:03.585Z,13.2
2019-04-03T08:26:03.293Z,13.4
2019-04-03T08:27:03.790Z,13.2
2019-04-03T08:28:03.121Z,13.1
2019-04-03T08:29:03.233Z,13.1
2019-04-03T08:30:03.712Z,13.4
2019-04-03T08:31:03.065Z,13.4
2019-04-03T08:32:03.225Z,13.6
2019-04-03T08:33:19.903Z,13.5
2019-04-03T08:34:18.787Z,13.8
2019-04-03T08:35:04.826Z,14
2019-04-03T08:36:03.363Z,13.9
2019-04-03T08:37:04.164Z,13.9
2019-04-03T08:38:03.701Z,14
2019-04-03T08:39:02.736Z,14.1
2019-04-03T08:40:03.700Z,13.5
2019-04-03T08:41:04.537Z,13.7
2019-04-03T08:42:03.577Z,13.5
2019-04-03T08:43:02.692Z,13.7
2019-04-03T08:44:09.172Z,14.1
2019-04-03T08:45:07.509Z,14.4
2019-04-03T08:46:03.299Z,14.9
2019-04-03T08:47:03.399Z,15.2
2019-04-03T08:48:07.398Z,14.8
2019-04-03T08:49:03.345Z,14.8
2019-04-03T08:50:03.277Z,15.1
2019-04-03T08:51:04.014Z,15.1
2019-04-03T08:52:06.171Z,15.3
2019-04-03T08:53:02.824Z,15.4
2019-04-03T08:54:03.157Z,15.3
2019-04-03T08:55:03.124Z,15.4
2019-04-03T08:56:03.606Z,15.6
2019-04-03T08:57:02.937Z,15.3
2019-04-03T08:58:02.854Z,14.9
2019-04-03T08:59:02.907Z,15
2019-04-03T09:00:02.992Z,15.3
2019-04-03T09:01:05.472Z,15.1
2019-04-03T09:02:03.222Z,15.1
2019-04-03T09:03:04.841Z,15
2019-04-03T09:04:03.549Z,15.6
2019-04-03T09:05:03.612Z,15.8
2019-04-03T09:06:03.335Z,16
2019-04-03T09:07:03.485Z,15.9
2019-04-03T09:08:02.693Z,15.4
2019-04-03T09:09:03.364Z,15.3
2019-04-03T09:10:03.532Z,15.6
2019-04-03T09:11:05.614Z,15.4
2019-04-03T09:12:03.947Z,15.4
2019-04-03T09:13:22.750Z,15.6
2019-04-03T09:14:03.581Z,14.9
2019-04-03T09:15:03.343Z,14.9
2019-04-03T09:16:03.367Z,15
2019-04-03T09:17:03.732Z,15.6
2019-04-03T09:18:07.401Z,16
2019-04-03T09:19:02.904Z,16.2
2019-04-03T09:20:03.015Z,16.1
2019-04-03T09:21:02.871Z,15.8
2019-04-03T09:22:03.123Z,15.9
2019-04-03T09:23:02.891Z,16.2
2019-04-03T09:24:03.037Z,16.6
2019-04-03T09:25:03.605Z,16.3
2019-04-03T09:26:03.977Z,15.9
2019-04-03T09:27:03.030Z,15.7
2019-04-03T09:28:03.185Z,15.9
2019-04-03T09:29:03.688Z,15.9
2019-04-03T09:30:04.094Z,16.3
2019-04-03T09:31:03.697Z,15.9
2019-04-03T09:32:03.104Z,15.9
2019-04-03T09:33:03.829Z,15.9
2019-04-03T09:34:03.457Z,15.8
2019-04-03T09:35:04.143Z,15.9
2019-04-03T09:36:04.660Z,16.4
2019-04-03T09:37:07.321Z,16.3
2019-04-03T09:38:03.527Z,16.4
2019-04-03T09:39:03.213Z,16.1
2019-04-03T09:40:03.810Z,16.4
2019-04-03T09:41:03.319Z,16.4
2019-04-03T09:42:02.956Z,16.8
2019-04-03T09:43:03.800Z,17.1
2019-04-03T09:44:03.545Z,17.1
2019-04-03T09:45:03.157Z,17.3
2019-04-03T09:46:03.428Z,17
2019-04-03T09:47:03.897Z,17.1
2019-04-03T09:48:06.316Z,17.2
2019-04-03T09:49:02.742Z,17.3
2019-04-03T09:50:03.212Z,17.1
2019-04-03T09:51:03.246Z,17.7
2019-04-03T09:52:02.651Z,18.1
2019-04-03T09:53:03.570Z,18.1
2019-04-03T09:54:03.928Z,18.2
2019-04-03T09:55:03.264Z,17.6
2019-04-03T09:56:03.616Z,17.5
2019-04-03T09:57:05.997Z,17.4
2019-04-03T09:58:04.953Z,16.9
2019-04-03T09:59:07.524Z,17
2019-04-03T10:00:03.486Z,17.6
2019-04-03T10:01:02.895Z,17.3
2019-04-03T10:02:02.885Z,17.1
2019-04-03T10:03:06.123Z,17.1
2019-04-03T10:04:03.386Z,17.3
2019-04-03T10:05:03.730Z,17.4
2019-04-03T10:06:03.896Z,17.8
2019-04-03T10:07:04.040Z,18.1
2019-04-03T10:08:03.837Z,17.6
2019-04-03T10:09:03.502Z,17.9
2019-04-03T10:10:04.018Z,18.1
2019-04-03T10:11:03.605Z,18.1
2019-04-03T10:12:03.453Z,18.8
2019-04-03T10:13:03.210Z,18.9
2019-04-03T10:14:03.170Z,19
2019-04-03T10:15:03.128Z,19.1
2019-04-03T10:16:04.825Z,18.7
2019-04-03T10:17:07.713Z,18.6
2019-04-03T10:18:03.179Z,18.4
2019-04-03T10:19:03.104Z,18.1
2019-04-03T10:20:02.741Z,18.3
2019-04-03T10:21:03.423Z,18.1
2019-04-03T10:22:03.123Z,18.3
2019-04-03T10:23:02.666Z,18.5
2019-04-03T10:24:02.683Z,18.8
2019-04-03T10:25:06.422Z,19
2019-04-03T10:26:02.803Z,19
2019-04-03T10:27:02.759Z,19.1
2019-04-03T10:28:03.477Z,19.1
2019-04-03T10:29:03.050Z,19
2019-04-03T10:30:03.525Z,18.9
2019-04-03T10:31:03.258Z,19.1
2019-04-03T10:32:03.770Z,19.4
2019-04-03T10:33:03.436Z,19.1
2019-04-03T10:34:04.777Z,19.5
2019-04-03T10:35:02.782Z,19.8
2019-04-03T10:36:03.375Z,19.1
2019-04-03T10:37:03.245Z,18.8
2019-04-03T10:38:03.348Z,18.6
2019-04-03T10:39:03.751Z,19
2019-04-03T10:40:03.707Z,18.7
2019-04-03T10:41:03.247Z,19.2
2019-04-03T10:42:03.952Z,19.6
2019-04-03T10:43:06.800Z,20.3
2019-04-03T10:44:02.847Z,20.3
2019-04-03T10:45:03.691Z,20.2
2019-04-03T10:46:02.973Z,19.9
2019-04-03T10:47:03.014Z,19.9
2019-04-03T10:48:02.804Z,19.6
2019-04-03T10:49:03.184Z,19.9
2019-04-03T10:50:05.870Z,19.9
2019-04-03T10:51:02.975Z,20.1
2019-04-03T10:52:02.895Z,20.1
2019-04-03T10:53:03.434Z,20.2
2019-04-03T10:54:03.415Z,19.8
2019-04-03T10:55:02.702Z,20.2
2019-04-03T10:56:03.306Z,20.4
2019-04-03T10:57:03.611Z,20.5
2019-04-03T10:58:08.712Z,20.5
2019-04-03T10:59:15.566Z,20.8
2019-04-03T11:00:03.329Z,20.8
2019-04-03T11:01:02.572Z,20.7
2019-04-03T11:02:03.642Z,20.6
2019-04-03T11:03:03.621Z,20.3
2019-04-03T11:04:02.744Z,20.3
2019-04-03T11:05:03.865Z,20.3
2019-04-03T11:06:03.575Z,20.4
2019-04-03T11:07:03.599Z,20.7
2019-04-03T11:08:03.699Z,21
2019-04-03T11:09:03.551Z,20.1
2019-04-03T11:10:03.631Z,19.6
2019-04-03T11:11:05.228Z,19.8
2019-04-03T11:12:03.005Z,19.8
2019-04-03T11:13:04.450Z,19.9
2019-04-03T11:14:08.174Z,20.3
2019-04-03T11:15:03.069Z,19.9
2019-04-03T11:16:03.148Z,19.8
2019-04-03T11:17:03.112Z,19.6
2019-04-03T11:18:02.910Z,19.5
2019-04-03T11:19:07.545Z,19.1
2019-04-03T11:20:03.175Z,19.1
2019-04-03T11:21:03.379Z,19
2019-04-03T11:22:03.052Z,19
2019-04-03T11:23:08.572Z,19.2
2019-04-03T11:24:07.336Z,19.7
2019-04-03T11:25:03.210Z,20.3
2019-04-03T11:26:02.788Z,20.4
2019-04-03T11:27:03.887Z,20.6
2019-04-03T11:28:06.968Z,20.6
2019-04-03T11:29:03.250Z,20.6
2019-04-03T11:30:03.688Z,20.3
2019-04-03T11:31:03.323Z,20.3
2019-04-03T11:32:03.640Z,20.4
2019-04-03T11:33:03.196Z,20.3
2019-04-03T11:34:03.710Z,20.3
2019-04-03T11:35:03.715Z,20.4
2019-04-03T11:36:03.362Z,20.4
2019-04-03T11:37:03.952Z,20.4
2019-04-03T11:38:26.839Z,19.6
2019-04-03T11:39:16.349Z,20
2019-04-03T11:40:06.044Z,20.2
2019-04-03T11:41:19.626Z,20.3
2019-04-03T11:42:03.150Z,20.1
2019-04-03T11:43:03.543Z,19.8
2019-04-03T11:44:03.028Z,20.1
2019-04-03T11:45:05.587Z,20.1
2019-04-03T11:46:02.876Z,20.5
2019-04-03T11:47:02.774Z,20.5
2019-04-03T11:48:03.113Z,20.5
2019-04-03T11:49:03.657Z,20.5
2019-04-03T11:50:03.778Z,20.4
2019-04-03T11:51:03.515Z,20.6
2019-04-03T11:52:04.061Z,20.4
2019-04-03T11:53:08.325Z,20.8
2019-04-03T11:54:03.444Z,20.8
2019-04-03T11:55:03.719Z,20.3
2019-04-03T11:56:03.647Z,20.8
2019-04-03T11:57:03.435Z,20.7
2019-04-03T11:58:02.786Z,20.4
2019-04-03T11:59:03.446Z,19.7
2019-04-03T12:00:03.354Z,20.3
2019-04-03T12:01:03.454Z,20.3
2019-04-03T12:02:03.065Z,19.8
2019-04-03T12:03:03.428Z,19.9
2019-04-03T12:04:03.183Z,20.2
2019-04-03T12:05:03.344Z,20.1
2019-04-03T12:06:03.717Z,20.4
2019-04-03T12:07:03.538Z,20.6
2019-04-03T12:08:03.335Z,20.7
2019-04-03T12:09:03.400Z,20.6
2019-04-03T12:10:04.916Z,20.4
2019-04-03T12:11:07.493Z,20
2019-04-03T12:12:02.838Z,20.6
2019-04-03T12:13:04.854Z,20.8
2019-04-03T12:14:02.982Z,21.1
2019-04-03T12:15:03.458Z,20.6
2019-04-03T12:16:02.902Z,20.4
2019-04-03T12:17:03.519Z,20.8
2019-04-03T12:18:03.035Z,20.8
2019-04-03T12:19:06.522Z,20.7
2019-04-03T12:20:03.111Z,20.7
2019-04-03T12:21:03.650Z,20.5
2019-04-03T12:22:04.159Z,19.9
2019-04-03T12:23:04.002Z,19.8
2019-04-03T12:24:03.326Z,19.9
2019-04-03T12:25:03.988Z,20.4
2019-04-03T12:26:03.906Z,20.7
2019-04-03T12:27:03.438Z,20.6
2019-04-03T12:28:07.369Z,20.4
2019-04-03T12:29:03.648Z,20.3
2019-04-03T12:30:03.411Z,19.9
2019-04-03T12:31:02.904Z,20
2019-04-03T12:32:06.232Z,19.8
2019-04-03T12:33:03.633Z,20.1
2019-04-03T12:34:07.184Z,20.2
2019-04-03T12:35:03.463Z,20.2
2019-04-03T12:36:07.375Z,20.5
2019-04-03T12:37:03.117Z,20.8
2019-04-03T12:38:02.789Z,21
2019-04-03T12:39:03.167Z,21.1
2019-04-03T12:40:02.826Z,20.9
2019-04-03T12:41:06.075Z,20.3
2019-04-03T12:42:02.705Z,20
2019-04-03T12:43:03.356Z,19.7
2019-04-03T12:44:03.632Z,19.8
2019-04-03T12:45:03.613Z,19.7
2019-04-03T12:46:03.768Z,20
2019-04-03T12:47:13.490Z,20.3
2019-04-03T12:48:03.653Z,20.3
2019-04-03T12:49:08.101Z,20.4
2019-04-03T12:50:03.688Z,20.6
2019-04-03T12:51:03.332Z,20.6
2019-04-03T12:52:05.273Z,20.3
2019-04-03T12:53:03.354Z,19.9
2019-04-03T12:54:03.075Z,20.2
2019-04-03T12:55:03.294Z,20.5
2019-04-03T12:56:02.997Z,20.6
2019-04-03T12:57:03.470Z,20.4
2019-04-03T12:58:06.347Z,20.3
2019-04-03T12:59:03.369Z,20.4
2019-04-03T13:00:03.016Z,20.6
2019-04-03T13:01:02.870Z,20.6
2019-04-03T13:02:02.813Z,20.5
2019-04-03T13:03:03.557Z,20.6
2019-04-03T13:04:03.724Z,20.4
2019-04-03T13:05:07.864Z,20.6
2019-04-03T13:06:02.988Z,20.8
2019-04-03T13:07:06.451Z,20.8
2019-04-03T13:08:03.192Z,20.9
2019-04-03T13:09:04.026Z,20.6
2019-04-03T13:10:08.439Z,20.4
2019-04-03T13:11:03.014Z,20
2019-04-03T13:12:04.090Z,20.1
2019-04-03T13:13:03.580Z,20.3
2019-04-03T13:14:03.637Z,20.5
2019-04-03T13:15:06.966Z,20.5
2019-04-03T13:16:03.075Z,20.4
2019-04-03T13:17:03.972Z,20.2
2019-04-03T13:18:03.428Z,19.8
2019-04-03T13:19:03.034Z,19.9
2019-04-03T13:20:06.705Z,19.9
2019-04-03T13:21:03.342Z,19.8
2019-04-03T13:22:03.046Z,19.8
2019-04-03T13:23:03.233Z,19.9
2019-04-03T13:24:03.563Z,20.1
2019-04-03T13:25:03.176Z,20.3
2019-04-03T13:26:03.262Z,20.4
2019-04-03T13:27:02.755Z,20.3
2019-04-03T13:28:05.020Z,20.3
2019-04-03T13:29:08.696Z,20.3
2019-04-03T13:30:14.413Z,20.3
2019-04-03T13:31:03.632Z,20.3
2019-04-03T13:32:03.078Z,20.6
2019-04-03T13:33:07.944Z,20.8
2019-04-03T13:34:02.795Z,20.8
2019-04-03T13:35:06.452Z,20.6